createdAt,value
2023-01-26T00:01:10.812Z,7.30
2023-01-26T00:03:37.794Z,7.93
2023-01-26T00:06:10.268Z,6.93
2023-01-26T00:08:44.947Z,6.87
2023-01-26T00:11:14.497Z,7.23
2023-01-26T00:13:41.721Z,6.90
2023-01-26T00:16:11.021Z,8.43
2023-01-26T00:18:39.103Z,7.50
2023-01-26T00:21:06.778Z,7.37
2023-01-26T00:23:34.876Z,8.23
2023-01-26T00:26:02.270Z,10.57
2023-01-26T00:28:29.361Z,7.07
2023-01-26T00:31:05.719Z,7.00
2023-01-26T00:33:32.640Z,7.50
2023-01-26T00:35:59.222Z,7.00
2023-01-26T00:38:27.185Z,7.27
2023-01-26T00:40:53.737Z,7.57
2023-01-26T00:43:20.732Z,7.40
2023-01-26T00:45:48.338Z,6.63
2023-01-26T00:48:15.179Z,6.97
2023-01-26T00:50:41.721Z,7.33
2023-01-26T00:53:09.926Z,7.47
2023-01-26T00:55:36.737Z,7.40
2023-01-26T00:58:05.596Z,6.73
2023-01-26T01:00:33.832Z,6.93
2023-01-26T01:03:00.464Z,6.53
2023-01-26T01:05:29.292Z,6.43
2023-01-26T01:07:55.958Z,6.20
2023-01-26T01:10:22.830Z,8.50
2023-01-26T01:12:50.056Z,7.50
2023-01-26T01:15:16.751Z,7.03
2023-01-26T01:17:43.264Z,6.83
2023-01-26T01:20:11.822Z,6.83
2023-01-26T01:22:41.031Z,7.20
2023-01-26T01:25:07.887Z,7.03
2023-01-26T01:27:34.424Z,6.30
2023-01-26T01:30:00.969Z,6.20
2023-01-26T01:32:27.463Z,6.33
2023-01-26T01:34:54.043Z,6.60
2023-01-26T01:37:21.245Z,6.00
2023-01-26T01:39:49.243Z,6.43
2023-01-26T01:42:15.781Z,6.30
2023-01-26T01:44:43.178Z,6.27
2023-01-26T01:47:23.166Z,6.77
2023-01-26T01:49:52.586Z,6.60
2023-01-26T01:52:31.438Z,6.20
2023-01-26T01:55:08.906Z,7.00
2023-01-26T01:57:58.936Z,6.23
2023-01-26T02:00:26.719Z,5.93
2023-01-26T02:03:19.038Z,5.83
2023-01-26T02:06:10.737Z,5.63
2023-01-26T02:08:44.715Z,5.33
2023-01-26T02:11:16.502Z,5.73
2023-01-26T02:13:46.191Z,4.57
2023-01-26T02:16:12.898Z,4.47
2023-01-26T02:18:39.425Z,4.40
2023-01-26T02:21:09.707Z,4.30
2023-01-26T02:23:51.077Z,4.40
2023-01-26T02:26:23.541Z,3.87
2023-01-26T02:28:51.463Z,3.90
2023-01-26T02:31:19.231Z,4.30
2023-01-26T02:33:47.486Z,4.20
2023-01-26T02:36:26.498Z,3.77
2023-01-26T02:38:54.338Z,3.63
2023-01-26T02:41:39.442Z,3.87
2023-01-26T02:44:09.959Z,3.57
2023-01-26T02:46:36.680Z,3.33
2023-01-26T02:49:22.294Z,3.40
2023-01-26T02:51:49.072Z,4.10
2023-01-26T02:54:35.852Z,4.60
2023-01-26T02:57:03.545Z,4.70
2023-01-26T02:59:30.191Z,4.50
2023-01-26T03:01:58.215Z,5.40
2023-01-26T03:04:25.093Z,5.73
2023-01-26T03:06:52.353Z,4.77
2023-01-26T03:09:18.887Z,5.10
2023-01-26T03:11:46.886Z,5.63
2023-01-26T03:14:15.006Z,5.23
2023-01-26T03:16:41.829Z,5.83
2023-01-26T03:19:31.809Z,5.57
2023-01-26T03:22:17.876Z,4.60
2023-01-26T03:25:03.075Z,4.67
2023-01-26T03:27:36.425Z,5.30
2023-01-26T03:30:03.367Z,4.80
2023-01-26T03:32:30.715Z,5.03
2023-01-26T03:35:00.420Z,5.03
2023-01-26T03:37:27.088Z,5.10
2023-01-26T03:40:25.262Z,5.63
2023-01-26T03:43:10.507Z,4.40
2023-01-26T03:45:55.757Z,4.73
2023-01-26T03:48:43.645Z,5.20
2023-01-26T03:51:28.801Z,4.50
2023-01-26T03:54:14.853Z,5.13
2023-01-26T03:56:41.479Z,4.23
2023-01-26T03:59:15.352Z,4.73
2023-01-26T04:02:05.196Z,5.47
2023-01-26T04:04:51.708Z,4.50
2023-01-26T04:07:39.929Z,4.47
2023-01-26T04:10:06.823Z,4.77
2023-01-26T04:12:33.738Z,5.10
2023-01-26T04:15:37.517Z,4.43
2023-01-26T04:18:26.904Z,4.50
2023-01-26T04:21:13.096Z,4.40
2023-01-26T04:23:41.870Z,4.93
2023-01-26T04:26:08.689Z,4.00
2023-01-26T04:28:36.015Z,4.07
2023-01-26T04:31:04.641Z,4.03
2023-01-26T04:33:33.284Z,4.40
2023-01-26T04:36:07.690Z,5.00
2023-01-26T04:38:37.162Z,5.20
2023-01-26T04:41:03.914Z,4.10
2023-01-26T04:43:36.380Z,4.63
2023-01-26T04:46:05.940Z,4.03
2023-01-26T04:48:35.092Z,4.27
2023-01-26T04:51:04.980Z,3.50
2023-01-26T04:53:33.396Z,3.97
2023-01-26T04:56:00.377Z,3.90
2023-01-26T04:58:27.099Z,3.80
2023-01-26T05:00:55.616Z,3.90
2023-01-26T05:03:23.556Z,4.50
2023-01-26T05:05:52.424Z,4.80
2023-01-26T05:08:21.729Z,4.07
2023-01-26T05:10:48.619Z,3.50
2023-01-26T05:13:46.392Z,3.63
2023-01-26T05:16:16.705Z,3.70
2023-01-26T05:19:02.027Z,3.83
2023-01-26T05:21:39.765Z,3.57
2023-01-26T05:24:06.901Z,4.50
2023-01-26T05:27:18.123Z,3.80
2023-01-26T05:29:46.909Z,4.40
2023-01-26T05:32:14.181Z,4.43
2023-01-26T05:34:41.204Z,3.20
2023-01-26T05:37:08.690Z,3.67
2023-01-26T05:39:36.483Z,4.40
2023-01-26T05:42:05.241Z,3.77
2023-01-26T05:45:01.114Z,3.30
2023-01-26T05:47:28.695Z,3.63
2023-01-26T05:49:55.249Z,2.80
2023-01-26T05:52:26.501Z,3.30
2023-01-26T05:54:53.381Z,3.40
2023-01-26T05:57:19.918Z,2.77
2023-01-26T06:00:07.946Z,2.83
2023-01-26T06:02:40.683Z,3.50
2023-01-26T06:05:10.851Z,3.33
2023-01-26T06:07:38.118Z,2.93
2023-01-26T06:10:11.842Z,3.13
2023-01-26T06:12:54.955Z,3.80
2023-01-26T06:16:02.988Z,4.10
2023-01-26T06:18:30.753Z,3.77
2023-01-26T06:21:03.170Z,3.93
2023-01-26T06:23:29.875Z,4.37
2023-01-26T06:26:01.987Z,3.97
2023-01-26T06:28:30.913Z,4.20
2023-01-26T06:31:01.621Z,4.23
2023-01-26T06:33:29.467Z,4.50
2023-01-26T06:35:56.600Z,4.30
2023-01-26T06:38:23.441Z,4.00
2023-01-26T06:40:50.626Z,4.10
2023-01-26T06:43:17.183Z,4.60
2023-01-26T06:45:43.801Z,3.80
2023-01-26T06:48:10.638Z,4.30
2023-01-26T06:50:37.461Z,4.10
2023-01-26T06:53:26.049Z,5.03
2023-01-26T06:56:09.199Z,7.70
2023-01-26T06:58:49.648Z,7.90
2023-01-26T07:01:51.397Z,6.77
2023-01-26T07:04:18.673Z,5.13
2023-01-26T07:06:45.488Z,6.30
2023-01-26T07:09:12.144Z,5.20
2023-01-26T07:11:38.688Z,5.67
2023-01-26T07:14:05.482Z,4.17
2023-01-26T07:16:33.824Z,4.27
2023-01-26T07:19:00.736Z,4.33
2023-01-26T07:21:27.377Z,4.13
2023-01-26T07:23:55.622Z,3.97
2023-01-26T07:26:22.316Z,4.57
2023-01-26T07:28:48.979Z,4.17
2023-01-26T07:31:15.699Z,4.20
2023-01-26T07:33:42.437Z,3.80
2023-01-26T07:36:11.015Z,4.67
2023-01-26T07:38:37.752Z,4.20
2023-01-26T07:41:07.503Z,5.23
2023-01-26T07:43:38.497Z,4.80
2023-01-26T07:46:10.569Z,5.33
2023-01-26T07:48:37.235Z,4.30
2023-01-26T07:51:05.224Z,4.07
2023-01-26T07:53:34.143Z,4.30
2023-01-26T07:56:16.084Z,4.43
2023-01-26T07:58:42.893Z,4.30
2023-01-26T08:01:11.916Z,4.17
2023-01-26T08:03:38.829Z,4.03
2023-01-26T08:06:07.050Z,4.57
2023-01-26T08:08:34.530Z,5.33
2023-01-26T08:11:02.192Z,5.10
2023-01-26T08:13:35.927Z,3.90
2023-01-26T08:16:12.806Z,3.30
2023-01-26T08:18:43.872Z,3.57
2023-01-26T08:21:11.898Z,3.73
2023-01-26T08:23:38.489Z,3.90
2023-01-26T08:26:08.543Z,3.70
2023-01-26T08:28:36.782Z,3.20
2023-01-26T08:31:11.457Z,3.13
2023-01-26T08:33:39.471Z,3.20
2023-01-26T08:36:09.284Z,3.00
2023-01-26T08:38:36.169Z,3.00
2023-01-26T08:41:03.390Z,3.30
2023-01-26T08:43:30.415Z,3.07
2023-01-26T08:45:57.844Z,3.60
2023-01-26T08:48:24.693Z,2.87
2023-01-26T08:50:59.232Z,3.27
2023-01-26T08:53:26.724Z,3.37
2023-01-26T08:55:53.261Z,3.23
2023-01-26T08:58:20.656Z,3.20
2023-01-26T09:00:47.338Z,3.63
2023-01-26T09:03:14.094Z,3.50
2023-01-26T09:05:40.798Z,3.80
2023-01-26T09:08:09.411Z,3.83
2023-01-26T09:10:38.527Z,3.83
2023-01-26T09:13:05.756Z,3.60
2023-01-26T09:15:32.339Z,4.27
2023-01-26T09:18:00.879Z,3.20
2023-01-26T09:20:27.901Z,3.43
2023-01-26T09:22:54.733Z,3.43
2023-01-26T09:25:21.311Z,3.77
2023-01-26T09:27:47.847Z,3.57
2023-01-26T09:30:14.886Z,2.83
2023-01-26T09:32:41.480Z,4.77
2023-01-26T09:35:14.163Z,3.70
2023-01-26T09:37:43.131Z,3.93
2023-01-26T09:40:18.393Z,3.97
2023-01-26T09:42:51.043Z,3.73
2023-01-26T09:45:26.989Z,4.17
2023-01-26T09:48:03.411Z,5.10
2023-01-26T09:50:41.808Z,4.60
2023-01-26T09:53:25.871Z,5.70
2023-01-26T09:55:54.077Z,4.73
2023-01-26T09:58:36.123Z,5.60
2023-01-26T10:01:04.334Z,5.20
2023-01-26T10:03:50.437Z,6.17
2023-01-26T10:06:28.471Z,5.80
2023-01-26T10:09:26.692Z,6.07
2023-01-26T10:12:00.592Z,5.67
2023-01-26T10:14:33.524Z,5.33
2023-01-26T10:17:01.704Z,5.90
2023-01-26T10:19:34.376Z,6.53
2023-01-26T10:22:08.173Z,6.37
2023-01-26T10:24:34.990Z,6.87
2023-01-26T10:27:01.580Z,6.23
2023-01-26T10:29:28.131Z,6.73
2023-01-26T10:31:55.470Z,7.57
2023-01-26T10:34:27.510Z,7.37
2023-01-26T10:37:13.345Z,7.13
2023-01-26T10:40:07.564Z,8.47
2023-01-26T10:42:36.168Z,8.20
2023-01-26T10:45:24.156Z,8.00
2023-01-26T10:48:05.818Z,7.93
2023-01-26T10:50:32.970Z,8.67
2023-01-26T10:53:02.160Z,8.40
2023-01-26T10:55:30.309Z,8.27
2023-01-26T10:57:57.623Z,8.70
2023-01-26T11:00:31.413Z,8.33
2023-01-26T11:03:13.368Z,9.20
2023-01-26T11:05:40.083Z,9.20
2023-01-26T11:08:34.625Z,9.47
2023-01-26T11:11:01.557Z,8.10
2023-01-26T11:13:28.058Z,9.03
2023-01-26T11:16:20.224Z,8.33
2023-01-26T11:19:04.554Z,9.20
2023-01-26T11:21:55.312Z,9.17
2023-01-26T11:24:46.655Z,8.77
2023-01-26T11:27:40.002Z,9.10
2023-01-26T11:30:20.929Z,10.07
2023-01-26T11:33:25.304Z,9.17
2023-01-26T11:36:01.196Z,9.80
2023-01-26T11:38:38.216Z,10.37
2023-01-26T11:41:20.106Z,11.57
2023-01-26T11:44:24.287Z,11.40
2023-01-26T11:47:18.834Z,12.73
2023-01-26T11:49:58.981Z,11.33
2023-01-26T11:52:48.686Z,10.60
2023-01-26T11:55:30.204Z,11.43
2023-01-26T11:58:21.102Z,11.70
2023-01-26T12:00:51.894Z,12.00
2023-01-26T12:03:48.035Z,11.47
2023-01-26T12:06:30.472Z,11.23
2023-01-26T12:09:03.153Z,12.00
2023-01-26T12:11:42.294Z,11.00
2023-01-26T12:14:25.898Z,11.73
2023-01-26T12:17:20.288Z,12.07
2023-01-26T12:20:21.210Z,12.10
2023-01-26T12:23:13.001Z,11.20
2023-01-26T12:25:50.676Z,11.10
2023-01-26T12:28:32.859Z,10.70
2023-01-26T12:31:23.869Z,11.70
2023-01-26T12:33:54.583Z,11.27
2023-01-26T12:36:44.881Z,11.43
2023-01-26T12:39:59.441Z,11.37
2023-01-26T12:42:47.740Z,10.50
2023-01-26T12:45:27.503Z,11.23
2023-01-26T12:48:02.292Z,11.77
2023-01-26T12:50:49.481Z,11.67
2023-01-26T12:53:32.267Z,13.10
2023-01-26T12:56:20.465Z,12.43
2023-01-26T12:58:50.040Z,11.90
2023-01-26T13:01:19.930Z,13.57
2023-01-26T13:03:58.717Z,13.57
2023-01-26T13:06:26.891Z,14.17
2023-01-26T13:09:22.649Z,13.97
2023-01-26T13:11:54.980Z,13.83
2023-01-26T13:14:57.889Z,13.20
2023-01-26T13:17:25.615Z,13.33
2023-01-26T13:19:54.517Z,13.83
2023-01-26T13:22:23.928Z,13.43
2023-01-26T13:24:57.415Z,13.30
2023-01-26T13:27:58.260Z,14.50
2023-01-26T13:30:24.771Z,15.00
2023-01-26T13:32:52.955Z,15.17
2023-01-26T13:35:26.197Z,14.40
2023-01-26T13:37:52.653Z,14.27
2023-01-26T13:40:23.798Z,14.77
2023-01-26T13:42:58.308Z,14.50
2023-01-26T13:45:33.963Z,13.93
2023-01-26T13:48:04.584Z,14.30
2023-01-26T13:50:38.961Z,15.20
2023-01-26T13:53:29.664Z,14.37
2023-01-26T13:56:01.121Z,14.20
2023-01-26T13:58:27.751Z,13.87
2023-01-26T14:00:59.502Z,14.33
2023-01-26T14:03:26.636Z,14.10
2023-01-26T14:06:08.915Z,14.27
2023-01-26T14:08:37.555Z,13.50
2023-01-26T14:11:06.037Z,14.20
2023-01-26T14:13:36.740Z,14.10
2023-01-26T14:16:06.194Z,13.63
2023-01-26T14:18:33.087Z,13.07
2023-01-26T14:21:05.865Z,13.80
2023-01-26T14:23:35.871Z,13.83
2023-01-26T14:26:28.580Z,14.13
2023-01-26T14:28:55.137Z,13.40
2023-01-26T14:31:23.406Z,13.50
2023-01-26T14:33:53.159Z,13.33
2023-01-26T14:36:20.687Z,13.23
2023-01-26T14:38:49.437Z,12.70
2023-01-26T14:41:22.833Z,13.03
2023-01-26T14:43:53.328Z,14.47
2023-01-26T14:46:30.291Z,16.20
2023-01-26T14:49:06.040Z,13.97
2023-01-26T14:51:34.903Z,11.60
2023-01-26T14:54:10.863Z,13.17
2023-01-26T14:56:39.360Z,12.23
2023-01-26T14:59:08.413Z,11.27
2023-01-26T15:01:35.445Z,11.43
2023-01-26T15:04:22.891Z,11.43
2023-01-26T15:06:49.447Z,11.53
2023-01-26T15:09:28.722Z,11.27
2023-01-26T15:12:16.885Z,10.10
2023-01-26T15:14:46.349Z,10.73
2023-01-26T15:17:42.109Z,11.87
2023-01-26T15:20:14.382Z,10.90
2023-01-26T15:22:42.015Z,12.30
2023-01-26T15:25:08.461Z,11.73
2023-01-26T15:27:36.595Z,13.10
2023-01-26T15:30:06.480Z,12.80
2023-01-26T15:32:39.460Z,12.47
2023-01-26T15:35:30.529Z,10.40
2023-01-26T15:38:05.158Z,10.83
2023-01-26T15:40:32.145Z,10.37
2023-01-26T15:43:11.921Z,10.67
2023-01-26T15:46:01.337Z,10.90
2023-01-26T15:48:31.599Z,10.87
2023-01-26T15:50:58.225Z,10.63
2023-01-26T15:53:24.654Z,11.63
2023-01-26T15:55:56.292Z,11.23
2023-01-26T15:58:23.826Z,9.87
2023-01-26T16:00:51.273Z,9.73
2023-01-26T16:03:19.911Z,10.27
2023-01-26T16:05:50.091Z,10.60
2023-01-26T16:08:17.887Z,10.07
2023-01-26T16:10:44.992Z,10.73
2023-01-26T16:13:13.170Z,10.30
2023-01-26T16:15:47.714Z,9.83
2023-01-26T16:18:14.800Z,10.47
2023-01-26T16:20:43.630Z,10.17
2023-01-26T16:23:31.840Z,10.50
2023-01-26T16:25:58.362Z,11.43
2023-01-26T16:28:24.839Z,11.67
2023-01-26T16:30:51.419Z,10.80
2023-01-26T16:33:24.526Z,11.43
2023-01-26T16:35:51.053Z,9.40
2023-01-26T16:38:17.566Z,9.57
2023-01-26T16:40:47.289Z,10.20
2023-01-26T16:43:21.412Z,10.83
2023-01-26T16:45:49.736Z,10.00
2023-01-26T16:48:17.130Z,10.10
2023-01-26T16:50:44.701Z,10.67
2023-01-26T16:53:33.005Z,11.00
2023-01-26T16:55:59.711Z,11.10
2023-01-26T16:58:26.591Z,11.50
2023-01-26T17:00:54.647Z,10.80
2023-01-26T17:03:21.337Z,9.87
2023-01-26T17:05:47.813Z,10.60
2023-01-26T17:08:14.263Z,10.17
2023-01-26T17:10:52.042Z,10.40
2023-01-26T17:13:27.156Z,10.40
2023-01-26T17:15:55.928Z,10.53
2023-01-26T17:18:22.553Z,10.30
2023-01-26T17:20:49.031Z,9.77
2023-01-26T17:23:15.537Z,9.63
2023-01-26T17:25:42.159Z,9.43
2023-01-26T17:28:08.637Z,8.97
2023-01-26T17:30:35.247Z,10.40
2023-01-26T17:33:01.953Z,9.40
2023-01-26T17:35:28.454Z,17.47
2023-01-26T17:37:55.267Z,14.87
2023-01-26T17:40:21.829Z,14.37
2023-01-26T17:42:48.268Z,10.47
2023-01-26T17:45:14.971Z,13.70
2023-01-26T17:47:41.517Z,13.03
2023-01-26T17:50:08.578Z,12.77
2023-01-26T17:52:36.456Z,12.37
2023-01-26T17:55:05.966Z,10.50
2023-01-26T17:57:33.328Z,10.73
2023-01-26T17:59:59.881Z,10.93
2023-01-26T18:02:26.550Z,10.90
2023-01-26T18:04:53.106Z,10.67
2023-01-26T18:07:19.720Z,12.10
2023-01-26T18:09:46.370Z,11.00
2023-01-26T18:12:12.852Z,10.93
2023-01-26T18:14:39.367Z,11.70
2023-01-26T18:17:05.797Z,12.23
2023-01-26T18:19:32.294Z,10.77
2023-01-26T18:21:58.771Z,11.20
2023-01-26T18:24:25.447Z,12.33
2023-01-26T18:26:52.073Z,12.47
2023-01-26T18:29:18.540Z,14.87
2023-01-26T18:31:44.999Z,12.73
2023-01-26T18:34:11.838Z,13.40
2023-01-26T18:36:38.924Z,13.13
2023-01-26T18:39:08.351Z,13.43
2023-01-26T18:41:35.248Z,12.40
2023-01-26T18:44:03.607Z,12.17
2023-01-26T18:46:33.058Z,11.87
2023-01-26T18:49:03.475Z,13.40
2023-01-26T18:51:32.503Z,12.50
2023-01-26T18:53:59.315Z,12.33
2023-01-26T18:56:26.696Z,12.13
2023-01-26T18:58:54.019Z,12.20
2023-01-26T19:01:21.439Z,12.53
2023-01-26T19:03:53.940Z,12.37
2023-01-26T19:06:20.917Z,14.50
2023-01-26T19:08:58.320Z,16.10
2023-01-26T19:11:30.741Z,15.07
2023-01-26T19:13:58.070Z,17.07
2023-01-26T19:16:24.919Z,16.10
2023-01-26T19:18:52.196Z,18.57
2023-01-26T19:21:24.283Z,16.07
2023-01-26T19:23:52.559Z,16.17
2023-01-26T19:26:21.953Z,15.87
2023-01-26T19:28:51.003Z,15.27
2023-01-26T19:31:21.604Z,14.67
2023-01-26T19:33:57.160Z,16.30
2023-01-26T19:36:24.849Z,15.43
2023-01-26T19:38:51.728Z,14.87
2023-01-26T19:41:20.114Z,15.00
2023-01-26T19:43:47.122Z,15.70
2023-01-26T19:46:14.715Z,15.03
2023-01-26T19:48:41.369Z,15.50
2023-01-26T19:51:11.908Z,16.33
2023-01-26T19:53:41.249Z,14.47
2023-01-26T19:56:09.692Z,15.23
2023-01-26T19:58:36.548Z,14.93
2023-01-26T20:01:11.784Z,14.93
2023-01-26T20:03:39.259Z,15.23
2023-01-26T20:06:13.063Z,14.33
2023-01-26T20:08:39.585Z,15.13
2023-01-26T20:11:07.233Z,15.13
2023-01-26T20:13:34.583Z,15.13
2023-01-26T20:16:02.139Z,14.93
2023-01-26T20:18:28.612Z,15.80
2023-01-26T20:20:56.710Z,15.67
2023-01-26T20:23:24.773Z,16.93
2023-01-26T20:25:51.677Z,16.63
2023-01-26T20:28:18.937Z,16.23
2023-01-26T20:30:45.534Z,16.77
2023-01-26T20:33:12.423Z,15.30
2023-01-26T20:35:40.374Z,17.50
2023-01-26T20:38:06.838Z,19.27
2023-01-26T20:40:33.288Z,17.50
2023-01-26T20:42:59.786Z,21.97
2023-01-26T20:45:26.440Z,21.47
2023-01-26T20:47:53.142Z,19.90
2023-01-26T20:50:19.633Z,22.87
2023-01-26T20:52:46.611Z,21.97
2023-01-26T20:55:13.204Z,20.03
2023-01-26T20:57:39.974Z,17.37
2023-01-26T21:00:07.233Z,18.30
2023-01-26T21:02:33.814Z,18.33
2023-01-26T21:05:00.671Z,17.47
2023-01-26T21:07:28.551Z,17.13
2023-01-26T21:09:55.100Z,18.00
2023-01-26T21:12:21.556Z,18.97
2023-01-26T21:14:48.165Z,18.97
2023-01-26T21:17:15.658Z,18.87
2023-01-26T21:19:42.128Z,18.10
2023-01-26T21:22:08.573Z,18.60
2023-01-26T21:24:35.619Z,19.17
2023-01-26T21:27:02.690Z,19.47
2023-01-26T21:29:29.215Z,18.97
2023-01-26T21:31:55.838Z,19.00
2023-01-26T21:34:22.325Z,18.90
2023-01-26T21:36:48.754Z,19.43
2023-01-26T21:39:15.331Z,19.93
2023-01-26T21:41:56.917Z,21.23
2023-01-26T21:44:25.719Z,22.07
2023-01-26T21:46:55.216Z,21.20
2023-01-26T21:49:22.976Z,19.67
2023-01-26T21:52:08.475Z,19.03
2023-01-26T21:54:35.568Z,19.10
2023-01-26T21:57:03.781Z,18.13
2023-01-26T21:59:30.723Z,18.50
2023-01-26T22:01:58.388Z,17.70
2023-01-26T22:04:30.223Z,19.33
2023-01-26T22:06:57.018Z,19.17
2023-01-26T22:09:24.171Z,18.03
2023-01-26T22:11:51.361Z,29.33
2023-01-26T22:14:21.689Z,26.10
2023-01-26T22:16:48.927Z,23.90
2023-01-26T22:19:15.542Z,22.80
2023-01-26T22:21:41.996Z,21.97
2023-01-26T22:24:11.879Z,21.57
2023-01-26T22:26:39.688Z,22.10
2023-01-26T22:29:07.085Z,22.90
2023-01-26T22:31:33.976Z,22.03
2023-01-26T22:34:01.103Z,22.80
2023-01-26T22:36:28.394Z,19.57
2023-01-26T22:38:55.243Z,19.67
2023-01-26T22:41:24.738Z,19.73
2023-01-26T22:43:54.255Z,19.57
2023-01-26T22:46:22.606Z,19.40
2023-01-26T22:48:50.166Z,19.97
2023-01-26T22:51:22.666Z,20.03
2023-01-26T22:53:50.704Z,20.00
2023-01-26T22:56:18.589Z,18.70
2023-01-26T22:58:57.685Z,19.63
2023-01-26T23:01:27.490Z,19.23
2023-01-26T23:03:55.608Z,19.23
2023-01-26T23:06:22.494Z,19.63
2023-01-26T23:08:49.240Z,19.53
2023-01-26T23:11:19.962Z,20.97
2023-01-26T23:13:48.023Z,20.50
2023-01-26T23:16:15.280Z,26.30
2023-01-26T23:18:42.375Z,26.67
2023-01-26T23:21:09.867Z,26.30
2023-01-26T23:23:36.469Z,23.53
2023-01-26T23:26:03.403Z,23.50
2023-01-26T23:28:33.318Z,22.77
2023-01-26T23:31:01.011Z,22.33
2023-01-26T23:33:30.063Z,23.00
2023-01-26T23:35:57.000Z,25.03
2023-01-26T23:38:25.945Z,24.43
2023-01-26T23:40:52.829Z,23.03
2023-01-26T23:43:19.508Z,22.47
2023-01-26T23:45:47.240Z,22.23
2023-01-26T23:48:14.434Z,23.10
2023-01-26T23:50:41.312Z,22.60
2023-01-26T23:53:08.188Z,22.33
2023-01-26T23:55:35.330Z,22.93
2023-01-26T23:58:01.830Z,24.57
